Tuesday, May 31, 2016
05:52 UTC
  |  Log In   |  Register Free
Airport Search:

South Alabama Regional At Bill Benton Field Airport
(K79J)

South Alabama Regional At Bill Benton Field Airport Diagram
No Airport Diagram Available

FAA data valid effective Mar 31 2016 - May 26 2016 (unless otherwise noted).

 
 
 
 
 
 
 
 
 
 
 
 
 
 
Current Aviation Weather for K79J

Weather Summary


The most recent METAR observation for 79J was updated at: 12:53 UTC
METAR for K79J is not available. Closest METAR is for K0J4
K79J  (most recent observation was updatred at 31:04 UTC)
310456Z AUTO 28003KT 10SM CLR 26/19 A2994 RMK AO2 SLP135 T02560194 403720222

K0J4  (16.5 nm NW)   (most recent observation was updated at 31:04 UTC)
310458Z AUTO 00000KT 10SM CLR 22/19 A2996 RMK AO2 SLP142 T02220189 403390200 $

KEDN  (25.3 nm NW)   (most recent observation was updated at 31:05 UTC)
310535Z AUTO 00000KT 10SM CLR 21/20 A2994 RMK AO2

TAF for K79J is not available.
KOZR  (34.9 nm NW)   (most recent observation was updatred at 31:00 UTC)
310000Z 3100/0106 VRB06KT 9999 SCT060 QNH2990INS TEMPO 3100/3101 VRB10G15KT 8000 VCTS BKN050CB BECMG 3106/3107 VRB06KT 8000 BR FEW050 QNH2992INS BECMG 3111/3112 27006KT 9999 NSW SCT070 QNH2993INS TX33/3120Z TN20/3109Z


GlobalAir.com is loading additional information.
 Current Weather at 79J
79.0 F° (26.1 C°)

North winds at 0.0 mph
Pressure:
29.96 in
Humidity:
67%
Wind:
North at 0.0 mph
Dew Point:
66.9 F° (19.4 C°)
Visibility:
10.00 mi
79J NOAA Radar




Find All Airport Services Find A Hotel Find A Rental Car Find A Golf Course Find A Restaurant $100 Hamburger



Airport Weather Forecast for K79J

Translated METAR for K79J (0456 UTC)
METAR:
K79J 310456Z AUTO 28003KT 10SM CLR 26/19 A2994 RMK AO2 SLP135 T02560194 403720222
Conditions at:
K79J (South Alabama Rgnl At Bill Benton Field, AL) observed 0456 UTC 31 May 2016
Temperature:
26°C (78.8°F)
Dewpoint:
19°C (66.2°F) [RH = 65.4]
Pressure:
29.94 inches Hg (1013.9 mb)
pressure at sea level is 135 in Hg
Winds:
from the W (280 degrees) at 3.5 mph (3 knots: 1.5 m/s)
Visibility:
10 mile(s)
Ceiling:
at least 12,000 feet AGL
Clouds:
Clear below 12,000 feet AGL
Remarks:
site is un-manned
site is automated and HAS a precipitation sensor

Translated TAF for KOZR (Cairns Aaf (Fort Rucker), AL) (0000 UTC)
TAF text:
KOZR 310000Z 3100/0106 VRB06KT 9999 SCT060 QNH2990INS
Forecast period:
Tuesday May 31 2016 00:00 UTC - Tuesday May 31 2016 06:00 UTC
Forecast type:
FROM: standard forecast or significant change
Winds:
variable wind direction at 6.9 mph (6 knots: 3.1 m/s)
Visibility:
Ceiling:
at least 12,000 feet AGL
Clouds:
Scattered Clouds at 6,000 feet AGL
Weather:
no significant weather observed at this time
TAF text:
3100/3101 VRB10G15KT 8000 VCTS BKN050CB BECMG 3106/3107 VRB06KT 8000 BR FEW050 QNH2992INS BECMG 3111/3112 27006KT 9999 NSW SCT070 QNH2993INS TX33/3120Z TN20/3109Z
Forecast period:
Wednesday Jun 01 2016 00:00 UTC - Wednesday Jun 01 2016 01:00 UTC
Forecast type:
FROM: standard forecast or significant change
Winds:
from the W (270 degrees) at 6.9 mph (6 knots: 3.1 m/s)
Visibility:
Ceiling:
at least 12,000 feet AGL
at least 12,000 feet AGL
Clouds:
Few Clouds at 5,000 feet AGL
Scattered Clouds at 7,000 feet AGL
Weather:
Moderate In Vicinity Thunderstorm
FBO's on the Field
FBO Company Facility Photos Services Transportation Aviation Fuel Prices: Prices include tax
Catering Weather Repair Courtesy Rental Type 100LL JetA JetA+ MOGAS 8087
 
South Alabama Regional Airport

This FBO has not yet been rated
FS:Phillips 66
Last Updated: May-26
Login to update fuel prices
SS:
Contact South Alabama Regional AirportMore FBO Information
 
Add another FBO Facility Photos Catering Weather Repair Courtesy Rental Type 100LL JetA JetA+ MOGAS 8087
Services Transportation Aviation Fuel Prices: Prices include tax


model-print
model-print
model-print
model-print